Time;durP1;ratioP1;P1;durP2;ratioP2;P2;SDS_P1;SDS_P2;PMS_P1;PMS_P2;Temp;Humidity;BMP_temperature;BMP_pressure;BME280_temperature;BME280_humidity;BME280_pressure;Samples;Min_cycle;Max_cycle;Signal;HPM_P1;HPM_P2
2022/09/13 00:01:42;;;;;;;2.05;1.27;;;13.80;99.90;;;;;;4146607;28;20068;-67
2022/09/13 00:03:43;;;;;;;2.63;1.20;;;13.80;99.90;;;;;;4145186;28;20038;-66
2022/09/13 00:05:44;;;;;;;1.73;1.30;;;13.80;99.90;;;;;;4146586;28;20084;-66
2022/09/13 00:07:46;;;;;;;2.40;1.13;;;13.80;99.90;;;;;;4145811;28;20034;-66
2022/09/13 00:09:47;;;;;;;2.13;1.33;;;13.80;99.90;;;;;;4146495;28;20025;-66
2022/09/13 00:11:48;;;;;;;1.30;1.20;;;13.80;99.90;;;;;;4145211;28;20042;-69
2022/09/13 00:13:50;;;;;;;2.42;1.45;;;13.80;99.90;;;;;;4146309;28;20083;-66
2022/09/13 00:15:51;;;;;;;1.85;1.60;;;13.70;99.90;;;;;;4144607;28;20099;-66
2022/09/13 00:17:52;;;;;;;1.30;1.20;;;13.80;99.90;;;;;;4146103;28;20092;-65
2022/09/13 00:19:53;;;;;;;1.40;1.13;;;13.80;99.90;;;;;;4145322;28;20034;-66
2022/09/13 00:21:54;;;;;;;1.43;1.33;;;13.70;99.90;;;;;;4145511;28;20038;-67
2022/09/13 00:23:56;;;;;;;2.33;1.13;;;13.70;99.90;;;;;;4145407;28;20552;-66
2022/09/13 00:26:09;;;;;;;3.17;1.30;;;13.70;99.90;;;;;;4145500;28;20041;-66
2022/09/13 00:28:10;;;;;;;2.00;1.00;;;13.70;99.90;;;;;;4145655;28;20085;-65
2022/09/13 00:30:12;;;;;;;1.25;1.10;;;13.70;99.90;;;;;;4145105;28;20438;-66
2022/09/13 00:32:13;;;;;;;1.27;1.00;;;13.70;99.90;;;;;;4145912;28;20616;-66
2022/09/13 00:34:14;;;;;;;2.42;1.25;;;13.70;99.90;;;;;;4144848;28;20077;-66
2022/09/13 00:36:15;;;;;;;2.73;1.17;;;13.60;99.90;;;;;;4144711;28;20084;-65
2022/09/13 00:38:17;;;;;;;2.38;1.20;;;13.70;99.90;;;;;;4145308;28;20030;-65
2022/09/13 00:40:21;;;;;;;2.57;1.40;;;13.70;99.90;;;;;;4145882;28;20364;-65
2022/09/13 00:42:31;;;;;;;2.17;1.20;;;13.60;99.90;;;;;;4144805;28;20145;-66
2022/09/13 00:45:02;;;;;;;1.73;1.40;;;13.60;99.90;;;;;;4145791;28;20084;-66
2022/09/13 00:47:03;;;;;;;1.77;1.23;;;13.50;99.90;;;;;;4144764;28;20163;-66
2022/09/13 00:49:36;;;;;;;2.23;1.57;;;13.50;99.90;;;;;;4145841;28;20022;-66
2022/09/13 00:51:40;;;;;;;2.37;1.30;;;13.50;99.90;;;;;;4142990;28;20109;-66
2022/09/13 00:53:47;;;;;;;2.37;1.40;;;13.50;99.90;;;;;;4145470;28;20046;-66
2022/09/13 00:56:11;;;;;;;1.87;1.30;;;13.50;99.90;;;;;;4144819;28;20037;-66
2022/09/13 00:58:21;;;;;;;3.70;1.20;;;13.50;99.90;;;;;;4145552;28;20037;-65
2022/09/13 01:00:22;;;;;;;2.13;1.10;;;13.30;99.90;;;;;;4144231;28;20029;-66
2022/09/13 01:02:24;;;;;;;2.27;1.50;;;13.30;99.90;;;;;;4145709;28;20375;-65
2022/09/13 01:04:27;;;;;;;1.20;1.10;;;13.20;99.90;;;;;;4144113;28;20045;-66
2022/09/13 01:06:33;;;;;;;4.33;1.80;;;13.20;99.90;;;;;;4145405;28;20083;-67
2022/09/13 01:08:36;;;;;;;5.03;1.30;;;13.20;99.90;;;;;;4145028;28;20030;-66
2022/09/13 01:10:40;;;;;;;2.20;1.27;;;13.10;99.90;;;;;;4145615;28;20068;-66
2022/09/13 01:13:17;;;;;;;3.57;1.20;;;13.10;99.90;;;;;;4144443;28;20025;-66
2022/09/13 01:15:19;;;;;;;5.03;1.63;;;13.00;99.90;;;;;;4145857;28;20049;-66
2022/09/13 01:17:20;;;;;;;1.30;1.13;;;13.00;99.90;;;;;;4144112;28;20414;-67
2022/09/13 01:19:21;;;;;;;2.93;1.60;;;13.00;99.90;;;;;;4145591;28;20571;-66
2022/09/13 01:21:41;;;;;;;1.23;0.97;;;12.90;99.90;;;;;;4144318;28;20037;-66
2022/09/13 01:24:28;;;;;;;1.98;0.90;;;12.90;99.90;;;;;;4145426;28;20092;-66
2022/09/13 01:26:49;;;;;;;3.17;1.60;;;12.90;99.90;;;;;;4144709;28;20038;-69
2022/09/13 01:29:11;;;;;;;2.42;1.02;;;12.80;99.90;;;;;;4144655;28;20026;-67
2022/09/13 01:31:34;;;;;;;1.80;1.07;;;12.80;99.90;;;;;;4144894;28;20088;-66
2022/09/13 01:33:56;;;;;;;2.20;1.53;;;12.80;99.90;;;;;;4144356;28;20030;-66
2022/09/13 01:36:18;;;;;;;1.30;1.20;;;12.70;99.90;;;;;;4145265;28;20430;-67
2022/09/13 01:38:38;;;;;;;1.70;1.40;;;12.70;99.90;;;;;;4143544;28;20891;-66
2022/09/13 01:40:59;;;;;;;2.30;1.63;;;12.60;99.90;;;;;;4145456;28;20022;-67
2022/09/13 01:43:12;;;;;;;2.45;1.30;;;12.50;99.90;;;;;;4144210;28;20355;-66
2022/09/13 01:45:34;;;;;;;3.90;1.50;;;12.50;99.90;;;;;;4145195;28;20073;-65
2022/09/13 01:47:57;;;;;;;2.27;1.50;;;12.40;99.90;;;;;;4144052;28;20100;-65
2022/09/13 01:50:12;;;;;;;2.53;1.33;;;12.40;99.90;;;;;;4145425;28;20037;-66
2022/09/13 01:52:35;;;;;;;2.27;1.70;;;12.30;99.90;;;;;;4143893;28;20049;-66
2022/09/13 01:54:46;;;;;;;2.23;1.67;;;12.30;99.90;;;;;;4144300;28;20572;-68
2022/09/13 01:56:58;;;;;;;2.83;1.40;;;12.30;99.90;;;;;;4143208;28;20026;-66
2022/09/13 01:59:13;;;;;;;2.67;1.70;;;12.30;99.90;;;;;;4144191;28;20037;-67
2022/09/13 02:01:37;;;;;;;2.80;1.50;;;12.30;99.90;;;;;;4128358;28;20034;-67
2022/09/13 02:03:49;;;;;;;3.00;1.60;;;12.30;99.90;;;;;;4128468;28;20407;-66
2022/09/13 02:05:58;;;;;;;2.10;1.53;;;12.20;99.90;;;;;;4131474;28;20430;-66
2022/09/13 02:08:12;;;;;;;1.87;1.43;;;12.20;99.90;;;;;;4143021;28;20482;-66
2022/09/13 02:10:29;;;;;;;1.40;1.30;;;12.20;99.90;;;;;;4146852;28;20072;-67
2022/09/13 02:12:35;;;;;;;2.97;1.50;;;12.20;99.90;;;;;;4147148;28;20025;-67
2022/09/13 02:14:39;;;;;;;2.13;1.50;;;12.20;99.90;;;;;;4147749;28;20034;-66
2022/09/13 02:16:53;;;;;;;2.60;1.37;;;12.10;99.90;;;;;;4147153;28;20038;-67
2022/09/13 02:18:59;;;;;;;3.50;1.87;;;12.10;99.90;;;;;;4131735;28;20046;-67
2022/09/13 02:21:10;;;;;;;2.17;1.67;;;12.00;99.90;;;;;;4130908;28;20022;-67
2022/09/13 02:23:24;;;;;;;2.80;1.70;;;12.00;99.90;;;;;;4131466;28;20357;-67
2022/09/13 02:25:28;;;;;;;1.80;1.47;;;11.90;99.90;;;;;;4131061;28;20641;-66
2022/09/13 02:27:32;;;;;;;3.43;1.47;;;11.80;99.90;;;;;;4131374;28;20077;-66
2022/09/13 02:29:38;;;;;;;6.27;1.90;;;11.80;99.90;;;;;;4130970;28;20034;-66
2022/09/13 02:32:08;;;;;;;2.77;1.63;;;11.80;99.90;;;;;;4131082;28;20027;-68
2022/09/13 02:34:20;;;;;;;3.88;1.90;;;11.80;99.90;;;;;;4130628;28;20451;-66
2022/09/13 02:36:27;;;;;;;8.83;2.03;;;11.80;99.90;;;;;;4131299;28;20090;-66
2022/09/13 02:38:31;;;;;;;1.87;1.47;;;11.70;99.90;;;;;;4130952;28;20085;-68
2022/09/13 02:40:48;;;;;;;2.53;1.80;;;11.70;99.90;;;;;;4131133;28;20030;-66
2022/09/13 02:43:04;;;;;;;1.80;1.60;;;11.70;99.90;;;;;;4129340;28;20046;-66
2022/09/13 02:45:05;;;;;;;1.70;1.40;;;11.60;99.90;;;;;;4133520;28;20039;-67
2022/09/13 02:47:14;;;;;;;2.50;1.90;;;11.60;99.90;;;;;;4129222;28;20046;-67
2022/09/13 02:49:35;;;;;;;9.47;1.90;;;11.60;99.90;;;;;;4147323;28;20088;-67
2022/09/13 02:52:18;;;;;;;2.40;2.00;;;11.50;99.90;;;;;;4142229;28;20088;-67
2022/09/13 02:54:31;;;;;;;4.20;1.90;;;11.40;99.90;;;;;;4144264;28;20081;-66
2022/09/13 02:56:55;;;;;;;3.63;2.10;;;11.50;99.90;;;;;;4145822;28;20548;-67
2022/09/13 02:59:15;;;;;;;4.30;1.90;;;11.30;99.90;;;;;;4146422;28;20022;-66
2022/09/13 03:01:17;;;;;;;1.70;1.60;;;11.30;99.90;;;;;;4137038;28;20022;-66
2022/09/13 03:03:18;;;;;;;3.60;1.93;;;11.30;99.90;;;;;;4147540;28;20466;-66
2022/09/13 03:05:19;;;;;;;1.73;1.53;;;11.20;99.90;;;;;;4146066;28;20042;-66
2022/09/13 03:07:20;;;;;;;3.17;1.87;;;11.20;99.90;;;;;;4147642;28;20471;-66
2022/09/13 03:09:22;;;;;;;1.90;1.30;;;11.20;99.90;;;;;;4146395;28;20084;-66
2022/09/13 03:11:41;;;;;;;2.93;1.87;;;11.20;99.90;;;;;;4147222;28;20037;-66
2022/09/13 03:14:17;;;;;;;9.50;2.17;;;11.20;99.90;;;;;;4145995;28;20076;-66
2022/09/13 03:16:36;;;;;;;3.17;1.80;;;11.20;99.90;;;;;;4146567;28;20088;-66
2022/09/13 03:18:53;;;;;;;2.93;1.73;;;11.20;99.90;;;;;;4145691;28;20421;-67
2022/09/13 03:21:06;;;;;;;2.57;1.70;;;11.20;99.90;;;;;;4146773;28;20026;-66
2022/09/13 03:23:17;;;;;;;3.23;1.70;;;11.20;99.90;;;;;;4145913;28;20443;-66
2022/09/13 03:25:18;;;;;;;4.33;1.90;;;11.20;99.90;;;;;;4129454;28;20469;-66
2022/09/13 03:28:08;;;;;;;4.70;2.17;;;11.20;99.90;;;;;;4129614;28;20034;-68
2022/09/13 03:30:14;;;;;;;2.47;1.83;;;11.20;99.90;;;;;;4129069;28;20034;-66
2022/09/13 03:32:30;;;;;;;3.00;1.93;;;11.00;99.90;;;;;;4130069;28;20105;-66
2022/09/13 03:34:51;;;;;;;4.70;2.00;;;11.00;99.90;;;;;;4129837;28;20022;-66
2022/09/13 03:37:04;;;;;;;2.25;2.05;;;11.00;99.90;;;;;;4130381;28;20034;-68
2022/09/13 03:39:33;;;;;;;3.07;2.20;;;10.90;99.90;;;;;;4129854;28;20467;-66
2022/09/13 03:41:40;;;;;;;3.00;1.90;;;10.80;99.90;;;;;;4141507;28;20099;-66
2022/09/13 03:43:56;;;;;;;3.10;2.23;;;10.90;99.90;;;;;;4143596;28;20033;-66
2022/09/13 03:45:59;;;;;;;2.67;1.60;;;10.90;99.90;;;;;;4146247;28;20081;-66
2022/09/13 03:48:03;;;;;;;3.67;2.03;;;10.90;99.90;;;;;;4145272;28;20030;-66
2022/09/13 03:50:07;;;;;;;2.53;1.80;;;10.90;99.90;;;;;;4146652;28;20054;-67
2022/09/13 03:52:09;;;;;;;3.37;2.20;;;10.80;99.90;;;;;;4147407;28;20099;-67
2022/09/13 03:54:27;;;;;;;6.70;3.17;;;10.90;99.90;;;;;;4145945;28;20092;-66
2022/09/13 03:56:29;;;;;;;4.07;2.37;;;10.80;99.90;;;;;;4145110;28;20132;-67
2022/09/13 03:58:30;;;;;;;3.97;2.23;;;10.80;99.90;;;;;;4145967;28;20075;-65
2022/09/13 04:00:31;;;;;;;2.33;2.13;;;10.90;99.90;;;;;;4144498;28;20029;-65
2022/09/13 04:02:33;;;;;;;3.10;1.80;;;10.90;99.90;;;;;;4144043;28;20034;-68
2022/09/13 04:04:34;;;;;;;2.47;1.80;;;10.90;99.90;;;;;;4142509;28;20739;-67
2022/09/13 04:06:35;;;;;;;5.03;1.50;;;10.90;99.90;;;;;;4142783;28;20029;-67
2022/09/13 04:08:36;;;;;;;3.20;2.00;;;10.90;99.90;;;;;;4144841;28;20034;-68
2022/09/13 04:10:37;;;;;;;3.27;1.70;;;10.90;99.90;;;;;;4140574;28;20108;-66
2022/09/13 04:12:40;;;;;;;4.53;1.83;;;10.90;99.90;;;;;;4141856;28;20076;-67
2022/09/13 04:14:44;;;;;;;3.73;1.60;;;10.80;99.90;;;;;;4139127;28;20088;-71
2022/09/13 04:16:45;;;;;;;3.07;2.07;;;10.80;99.90;;;;;;4141428;28;20076;-67
2022/09/13 04:18:47;;;;;;;3.37;2.10;;;10.90;99.90;;;;;;4140016;28;20042;-68
2022/09/13 04:20:56;;;;;;;4.40;1.97;;;11.10;99.90;;;;;;4142480;28;20462;-69
2022/09/13 04:22:57;;;;;;;4.67;1.67;;;11.40;99.90;;;;;;4135387;28;20088;-66
2022/09/13 04:24:59;;;;;;;1.90;1.70;;;11.80;99.90;;;;;;4141698;28;20112;-68
2022/09/13 04:27:00;;;;;;;2.13;1.30;;;12.10;99.90;;;;;;4140163;28;20050;-68
2022/09/13 04:29:01;;;;;;;2.70;1.20;;;12.40;99.90;;;;;;4142072;28;20080;-70
2022/09/13 04:31:02;;;;;;;4.37;1.50;;;12.80;99.90;;;;;;4140325;28;20445;-68
2022/09/13 04:33:04;;;;;;;6.43;1.90;;;13.10;99.90;;;;;;4140947;28;20053;-72
2022/09/13 04:35:07;;;;;;;5.03;1.50;;;13.40;99.90;;;;;;4140507;28;20429;-67
2022/09/13 04:37:08;;;;;;;6.53;1.57;;;13.50;99.90;;;;;;4137682;28;20042;-77
2022/09/13 04:39:09;;;;;;;5.77;2.33;;;13.70;99.90;;;;;;4146047;28;20096;-72
2022/09/13 04:41:12;;;;;;;5.37;1.30;;;14.00;99.90;;;;;;4144693;28;20072;-70
2022/09/13 04:43:13;;;;;;;3.63;1.60;;;14.30;99.90;;;;;;4145796;28;20042;-70
2022/09/13 04:45:14;;;;;;;4.93;1.57;;;14.40;99.90;;;;;;4144564;28;20556;-73
2022/09/13 04:47:15;;;;;;;3.87;1.23;;;14.70;99.90;;;;;;4146178;28;20092;-70
2022/09/13 04:49:18;;;;;;;5.60;1.40;;;15.00;99.90;;;;;;4144450;28;20101;-70
2022/09/13 04:51:23;;;;;;;4.65;1.30;;;15.50;99.90;;;;;;4145492;28;20076;-73
2022/09/13 04:53:25;;;;;;;2.70;1.30;;;16.00;99.90;;;;;;4143838;28;20058;-71
2022/09/13 04:55:26;;;;;;;3.58;1.38;;;16.50;99.90;;;;;;4145368;28;20042;-68
2022/09/13 04:57:28;;;;;;;4.05;1.10;;;17.00;99.90;;;;;;4144510;28;20030;-68
2022/09/13 04:59:29;;;;;;;5.28;1.23;;;17.40;99.90;;;;;;4145004;28;20033;-71
2022/09/13 05:01:30;;;;;;;2.70;1.40;;;17.40;99.90;;;;;;4142451;28;20042;-71
2022/09/13 05:03:33;;;;;;;2.53;1.08;;;17.60;99.90;;;;;;4143316;28;20042;-66
2022/09/13 05:05:34;;;;;;;5.75;1.52;;;17.80;99.90;;;;;;4143541;28;20050;-69
2022/09/13 05:07:35;;;;;;;5.05;1.17;;;18.00;99.90;;;;;;4142328;28;20556;-67
2022/09/13 05:09:36;;;;;;;2.40;1.10;;;18.10;99.90;;;;;;4144889;28;20088;-67
2022/09/13 05:11:37;;;;;;;4.10;1.30;;;18.10;99.90;;;;;;4144388;28;20486;-67
2022/09/13 05:13:38;;;;;;;1.85;0.90;;;18.10;99.90;;;;;;4144640;28;20084;-66
2022/09/13 05:15:40;;;;;;;4.55;1.33;;;18.20;99.90;;;;;;4143926;28;20034;-68
2022/09/13 05:17:41;;;;;;;2.85;1.15;;;18.20;99.90;;;;;;4145007;28;20034;-67
2022/09/13 05:19:42;;;;;;;4.45;1.20;;;18.50;99.90;;;;;;4142911;28;20081;-67
2022/09/13 05:21:43;;;;;;;6.20;1.13;;;18.70;99.90;;;;;;4145209;28;20636;-71
2022/09/13 05:23:47;;;;;;;4.22;1.20;;;19.10;99.90;;;;;;4144036;28;20042;-67
2022/09/13 05:25:56;;;;;;;4.43;1.30;;;19.40;99.90;;;;;;4145147;28;20453;-67
2022/09/13 05:27:57;;;;;;;4.95;1.40;;;19.50;99.90;;;;;;4144249;28;20104;-67
2022/09/13 05:29:58;;;;;;;4.53;1.17;;;19.90;99.90;;;;;;4145225;28;20080;-67
2022/09/13 05:31:59;;;;;;;5.97;1.63;;;19.90;99.50;;;;;;4143547;28;20482;-69
2022/09/13 05:34:07;;;;;;;6.72;0.98;;;19.70;99.30;;;;;;4145214;28;20038;-68
2022/09/13 05:36:08;;;;;;;5.00;0.90;;;19.60;98.70;;;;;;4143673;28;20033;-67
2022/09/13 05:38:09;;;;;;;5.47;0.70;;;19.70;99.30;;;;;;4144453;28;20105;-68
2022/09/13 05:40:10;;;;;;;3.80;1.00;;;20.00;98.90;;;;;;4147324;28;20034;-68
2022/09/13 05:42:11;;;;;;;5.57;2.08;;;20.20;98.40;;;;;;4147609;28;20080;-72
2022/09/13 05:44:13;;;;;;;2.67;0.98;;;19.90;98.20;;;;;;4146322;28;20034;-69
2022/09/13 05:46:16;;;;;;;3.17;1.80;;;19.50;98.60;;;;;;4147293;28;20110;-67
2022/09/13 05:48:17;;;;;;;1.15;1.02;;;19.40;98.70;;;;;;4147893;28;20414;-66
2022/09/13 05:50:19;;;;;;;4.80;1.15;;;19.30;98.60;;;;;;4146884;28;20033;-68
2022/09/13 05:52:20;;;;;;;3.13;0.93;;;19.20;98.70;;;;;;4147544;28;20195;-67
2022/09/13 05:54:21;;;;;;;3.22;1.17;;;19.00;98.60;;;;;;4146874;28;20425;-67
2022/09/13 05:56:27;;;;;;;1.00;0.57;;;18.50;99.00;;;;;;4147924;28;20092;-72
2022/09/13 05:58:28;;;;;;;3.47;0.82;;;18.20;99.40;;;;;;4147129;28;20026;-66
2022/09/13 06:00:31;;;;;;;3.50;0.60;;;18.00;99.60;;;;;;4148145;28;20045;-67
2022/09/13 06:02:32;;;;;;;5.00;1.13;;;17.70;99.90;;;;;;4146716;28;20080;-67
2022/09/13 06:04:34;;;;;;;3.80;1.20;;;17.40;99.90;;;;;;4148094;28;20552;-67
2022/09/13 06:06:35;;;;;;;1.58;1.00;;;17.40;99.90;;;;;;4146622;28;20639;-71
2022/09/13 06:08:36;;;;;;;2.33;1.00;;;17.30;99.90;;;;;;4147840;28;20033;-67
2022/09/13 06:10:37;;;;;;;4.38;1.00;;;17.20;99.90;;;;;;4145640;28;20030;-72
2022/09/13 06:12:39;;;;;;;3.55;0.95;;;17.20;99.90;;;;;;4147539;28;20033;-67
2022/09/13 06:14:40;;;;;;;3.65;1.15;;;17.00;99.90;;;;;;4146849;28;20014;-68
2022/09/13 06:16:41;;;;;;;3.40;1.00;;;16.80;99.90;;;;;;4147186;28;20026;-67
2022/09/13 06:18:43;;;;;;;2.17;1.10;;;16.80;99.90;;;;;;4147184;28;20026;-67
2022/09/13 06:20:45;;;;;;;1.88;0.75;;;16.70;99.90;;;;;;4145565;28;20042;-67
2022/09/13 06:22:50;;;;;;;1.52;0.43;;;16.70;99.90;;;;;;4147811;28;20034;-68
2022/09/13 06:24:51;;;;;;;1.13;0.80;;;16.80;99.90;;;;;;4146386;28;20108;-67
2022/09/13 06:26:53;;;;;;;2.50;1.10;;;16.90;99.90;;;;;;4147607;28;20034;-66
2022/09/13 06:28:56;;;;;;;0.93;0.70;;;16.70;99.90;;;;;;4145656;28;20525;-66
2022/09/13 06:31:11;;;;;;;0.70;0.70;;;16.50;99.90;;;;;;4147560;28;20034;-66
2022/09/13 06:33:12;;;;;;;1.25;0.70;;;16.50;99.90;;;;;;4146569;28;20022;-67
2022/09/13 06:35:13;;;;;;;1.63;0.80;;;16.50;99.90;;;;;;4147433;28;20363;-69
2022/09/13 06:37:14;;;;;;;1.80;0.85;;;16.50;99.90;;;;;;4146164;28;20029;-68
2022/09/13 06:39:15;;;;;;;2.45;0.68;;;16.20;99.90;;;;;;4147360;28;20030;-67
2022/09/13 06:41:19;;;;;;;2.05;0.47;;;15.90;99.90;;;;;;4146300;28;20552;-67
2022/09/13 06:43:20;;;;;;;3.15;0.60;;;15.90;99.90;;;;;;4147493;28;20103;-67
2022/09/13 06:45:21;;;;;;;0.95;0.60;;;16.00;99.90;;;;;;4146297;28;20084;-69
2022/09/13 06:47:22;;;;;;;0.73;0.40;;;16.10;99.90;;;;;;4147239;28;20038;-66
2022/09/13 06:49:24;;;;;;;2.17;0.52;;;16.70;99.90;;;;;;4146026;28;20014;-69
2022/09/13 06:51:25;;;;;;;1.83;0.40;;;17.40;99.90;;;;;;4146695;28;20097;-68
2022/09/13 06:53:27;;;;;;;3.22;0.90;;;18.20;99.90;;;;;;4146593;28;20037;-67
2022/09/13 06:55:29;;;;;;;1.17;0.93;;;18.80;99.90;;;;;;4146377;28;20080;-69
2022/09/13 06:57:30;;;;;;;1.02;0.60;;;19.40;99.90;;;;;;4147135;28;20477;-68
2022/09/13 06:59:31;;;;;;;2.60;0.50;;;19.60;99.90;;;;;;4146561;28;20080;-68
2022/09/13 07:01:34;;;;;;;3.60;0.80;;;20.20;99.40;;;;;;4147052;28;20490;-76
2022/09/13 07:03:39;;;;;;;1.17;0.60;;;20.50;98.90;;;;;;4145985;28;20116;-72
2022/09/13 07:05:41;;;;;;;3.63;0.68;;;20.80;98.60;;;;;;4146770;28;20038;-71
2022/09/13 07:07:42;;;;;;;3.90;1.25;;;21.10;98.20;;;;;;4145943;28;20806;-73
2022/09/13 07:09:43;;;;;;;0.60;0.50;;;21.20;97.90;;;;;;4147008;28;20045;-75
2022/09/13 07:11:46;;;;;;;1.38;0.60;;;21.70;97.60;;;;;;4145831;28;20033;-73
2022/09/13 07:13:51;;;;;;;23.83;4.00;;;21.80;97.20;;;;;;4147016;28;20041;-69
2022/09/13 07:15:53;;;;;;;29.02;6.18;;;21.50;96.50;;;;;;4145854;28;20026;-69
2022/09/13 07:17:54;;;;;;;8.40;1.48;;;20.30;97.30;;;;;;4146852;28;20367;-67
2022/09/13 07:19:55;;;;;;;1.95;0.68;;;20.00;98.10;;;;;;4145705;28;20026;-70
2022/09/13 07:21:57;;;;;;;4.38;0.98;;;20.10;98.00;;;;;;4146429;28;20105;-68
2022/09/13 07:23:58;;;;;;;2.15;1.05;;;20.10;98.00;;;;;;4145952;28;20038;-67
2022/09/13 07:26:06;;;;;;;2.33;0.68;;;20.00;98.00;;;;;;4146003;28;20037;-69
2022/09/13 07:28:07;;;;;;;1.50;0.40;;;19.50;97.80;;;;;;4146051;28;20042;-68
2022/09/13 07:30:08;;;;;;;0.52;0.40;;;18.80;98.30;;;;;;4146493;28;20159;-68
2022/09/13 07:32:09;;;;;;;1.27;0.60;;;18.50;98.70;;;;;;4146216;28;20046;-67
2022/09/13 07:34:19;;;;;;;1.52;0.30;;;18.20;99.10;;;;;;4145471;28;20033;-68
2022/09/13 07:36:20;;;;;;;0.45;0.35;;;17.90;99.00;;;;;;4146216;28;20076;-69
2022/09/13 07:38:22;;;;;;;1.08;0.68;;;17.80;99.20;;;;;;4145531;28;20037;-67
2022/09/13 07:40:23;;;;;;;1.15;0.88;;;17.60;99.40;;;;;;4146426;28;20073;-68
2022/09/13 07:42:24;;;;;;;0.57;0.32;;;17.70;99.60;;;;;;4145094;28;20620;-66
2022/09/13 07:44:25;;;;;;;1.75;0.50;;;17.60;99.60;;;;;;4146660;28;20038;-67
2022/09/13 07:46:32;;;;;;;0.80;0.40;;;17.60;99.60;;;;;;4145154;28;20136;-67
2022/09/13 07:48:36;;;;;;;3.60;0.40;;;17.60;99.60;;;;;;4146327;28;20026;-67
2022/09/13 07:50:37;;;;;;;4.78;1.13;;;17.80;99.70;;;;;;4145297;28;20038;-71
2022/09/13 07:52:39;;;;;;;10.13;1.67;;;18.10;99.70;;;;;;4146318;28;20038;-67
2022/09/13 07:54:40;;;;;;;2.60;1.35;;;18.30;99.60;;;;;;4144913;28;20076;-68
2022/09/13 07:56:42;;;;;;;4.72;1.13;;;18.70;99.40;;;;;;4145848;28;20029;-67
2022/09/13 07:58:45;;;;;;;2.53;0.70;;;18.60;99.20;;;;;;4145119;28;20041;-69
2022/09/13 08:00:46;;;;;;;0.90;0.35;;;19.10;99.10;;;;;;4145596;28;20084;-67
2022/09/13 08:02:47;;;;;;;1.70;0.38;;;19.20;98.40;;;;;;4145338;28;20076;-67
2022/09/13 08:04:48;;;;;;;1.88;0.98;;;19.40;98.20;;;;;;4145588;28;20442;-68
2022/09/13 08:06:49;;;;;;;2.65;1.10;;;19.70;97.90;;;;;;4145310;28;20050;-67
2022/09/13 08:08:50;;;;;;;2.15;0.50;;;19.80;97.80;;;;;;4143451;28;20069;-73
2022/09/13 08:10:53;;;;;;;1.00;0.52;;;19.90;97.70;;;;;;4145762;28;20026;-67
2022/09/13 08:12:54;;;;;;;10.30;3.10;;;20.00;97.50;;;;;;4144648;28;20026;-68
2022/09/13 08:14:55;;;;;;;4.35;0.82;;;19.80;97.70;;;;;;4146001;28;20450;-67
2022/09/13 08:16:56;;;;;;;2.67;1.00;;;19.60;97.80;;;;;;4144400;28;20463;-68
2022/09/13 08:19:00;;;;;;;28.50;3.80;;;19.40;98.10;;;;;;4145732;28;20029;-66
2022/09/13 08:21:01;;;;;;;34.10;5.47;;;19.00;98.40;;;;;;4144462;28;20034;-67
2022/09/13 08:23:04;;;;;;;29.08;5.68;;;18.50;98.60;;;;;;4145923;28;20033;-67
2022/09/13 08:25:06;;;;;;;109.40;14.55;;;17.90;99.10;;;;;;4144508;28;20860;-69
2022/09/13 08:27:07;;;;;;;61.00;10.52;;;17.50;99.90;;;;;;4145911;28;20034;-67
2022/09/13 08:29:10;;;;;;;25.80;3.75;;;17.30;99.90;;;;;;4144418;28;20084;-67
2022/09/13 08:31:19;;;;;;;38.83;7.88;;;17.40;99.90;;;;;;4144327;28;20172;-67
2022/09/13 08:33:20;;;;;;;29.10;7.03;;;17.30;99.90;;;;;;4144688;28;20026;-67
2022/09/13 08:35:21;;;;;;;4.60;3.03;;;17.60;99.90;;;;;;4145502;28;20038;-68
2022/09/13 08:37:23;;;;;;;2.33;1.95;;;17.80;99.90;;;;;;4144378;28;20434;-67
2022/09/13 08:39:24;;;;;;;14.40;3.63;;;18.00;99.70;;;;;;4143865;28;20042;-68
2022/09/13 08:41:45;;;;;;;2.17;1.20;;;18.30;99.50;;;;;;4143948;28;20464;-67
2022/09/13 08:43:58;;;;;;;;;;;18.50;99.00;;;;;;4145152;28;20033;-68
2022/09/13 08:46:07;;;;;;;1.05;0.60;;;18.60;98.80;;;;;;4144479;28;20021;-66
2022/09/13 08:48:15;;;;;;;1.00;0.60;;;18.80;98.70;;;;;;4145028;28;20092;-66
2022/09/13 08:50:27;;;;;;;1.40;0.60;;;19.10;98.30;;;;;;4144757;28;20026;-66
2022/09/13 08:52:33;;;;;;;1.25;0.82;;;19.20;97.80;;;;;;4144687;28;20050;-67
2022/09/13 08:54:34;;;;;;;16.23;2.25;;;19.30;98.00;;;;;;4143584;28;20481;-67
2022/09/13 08:56:46;;;;;;;3.78;0.80;;;19.30;98.20;;;;;;4144347;28;20072;-67
2022/09/13 08:58:56;;;;;;;2.95;1.15;;;19.20;98.30;;;;;;4144468;28;20030;-67
2022/09/13 09:01:13;;;;;;;2.03;0.73;;;19.10;98.50;;;;;;4144637;28;20026;-66
2022/09/13 09:03:48;;;;;;;2.92;0.98;;;19.00;98.40;;;;;;4144429;28;20474;-66
2022/09/13 09:05:51;;;;;;;1.45;0.80;;;18.80;98.70;;;;;;4144754;28;20037;-69
2022/09/13 09:08:13;;;;;;;1.75;0.70;;;18.80;98.90;;;;;;4144192;28;20029;-68
2022/09/13 09:10:19;;;;;;;2.17;0.70;;;18.80;98.80;;;;;;4145247;28;20029;-69
2022/09/13 09:12:35;;;;;;;1.42;0.63;;;18.80;98.80;;;;;;4143976;28;20099;-67
2022/09/13 09:14:43;;;;;;;1.30;0.80;;;18.60;99.00;;;;;;4145262;28;20049;-68
2022/09/13 09:16:47;;;;;;;3.78;0.90;;;18.60;99.00;;;;;;4143727;28;20026;-67
2022/09/13 09:18:48;;;;;;;0.90;0.65;;;18.50;99.00;;;;;;4144751;28;20029;-67
2022/09/13 09:20:53;;;;;;;2.65;1.10;;;18.50;99.00;;;;;;4144061;28;20050;-67
2022/09/13 09:22:55;;;;;;;1.58;0.60;;;18.60;98.90;;;;;;4144665;28;20046;-67
2022/09/13 09:24:57;;;;;;;2.08;1.00;;;18.70;99.10;;;;;;4144019;28;20064;-67
2022/09/13 09:27:00;;;;;;;2.15;0.70;;;18.80;98.90;;;;;;4144273;28;20645;-68
2022/09/13 09:29:19;;;;;;;0.77;0.75;;;18.70;98.90;;;;;;4144680;28;20100;-67
2022/09/13 09:31:34;;;;;;;0.60;0.60;;;18.60;99.00;;;;;;4144584;28;20025;-67
2022/09/13 09:33:40;;;;;;;2.28;0.77;;;18.60;98.70;;;;;;4144022;28;20466;-67
2022/09/13 09:36:06;;;;;;;1.85;0.80;;;18.60;98.60;;;;;;4144216;28;20089;-68
2022/09/13 09:38:42;;;;;;;2.50;1.65;;;18.50;98.60;;;;;;4143981;28;20038;-67
2022/09/13 09:40:44;;;;;;;0.63;0.47;;;18.50;98.60;;;;;;4144807;28;20022;-68
2022/09/13 09:42:48;;;;;;;1.17;0.60;;;18.60;98.70;;;;;;4143382;28;20144;-67
2022/09/13 09:45:26;;;;;;;1.95;0.70;;;18.60;98.50;;;;;;4144500;28;20034;-66
2022/09/13 09:47:31;;;;;;;0.90;0.55;;;19.00;98.50;;;;;;4142207;28;20080;-67
2022/09/13 09:52:07;;;;;;;1.65;0.57;;;19.30;97.50;;;;;;4143153;28;20187;-68
2022/09/13 09:54:10;;;;;;;0.95;0.47;;;19.00;97.90;;;;;;4144842;28;20030;-67
2022/09/13 09:56:13;;;;;;;3.92;1.15;;;18.70;98.00;;;;;;4143651;28;20843;-67
2022/09/13 09:58:15;;;;;;;2.38;0.90;;;18.60;98.20;;;;;;4144934;28;20077;-68
2022/09/13 10:00:17;;;;;;;1.63;0.68;;;18.40;98.50;;;;;;4143688;28;20049;-67
2022/09/13 10:02:20;;;;;;;1.77;0.82;;;18.30;98.70;;;;;;4144967;28;20029;-67
2022/09/13 10:04:22;;;;;;;2.75;0.50;;;18.30;98.80;;;;;;4143645;28;20038;-69
2022/09/13 10:06:27;;;;;;;2.95;1.02;;;18.20;98.70;;;;;;4144438;28;20080;-68
2022/09/13 10:08:32;;;;;;;3.33;0.63;;;17.90;98.50;;;;;;4144033;28;20042;-67
2022/09/13 10:10:44;;;;;;;2.22;0.47;;;17.90;98.70;;;;;;4144284;28;20421;-68
2022/09/13 10:12:51;;;;;;;2.78;1.00;;;17.90;98.80;;;;;;4142394;28;20042;-67
2022/09/13 10:15:16;;;;;;;1.10;0.68;;;17.80;98.90;;;;;;4144446;28;20068;-67
2022/09/13 10:17:20;;;;;;;1.50;0.50;;;17.80;99.10;;;;;;4143491;28;20088;-67
2022/09/13 10:19:27;;;;;;;1.70;0.88;;;17.70;98.90;;;;;;4144419;28;20030;-67
2022/09/13 10:21:28;;;;;;;0.65;0.50;;;17.90;99.20;;;;;;4142251;28;20046;-67
2022/09/13 10:23:34;;;;;;;4.57;0.70;;;18.20;99.10;;;;;;4144323;28;20029;-72
2022/09/13 10:25:36;;;;;;;3.00;0.68;;;18.30;99.00;;;;;;4146170;28;20042;-69
2022/09/13 10:27:46;;;;;;;0.75;0.57;;;18.50;98.90;;;;;;4145459;28;20087;-67
2022/09/13 10:29:49;;;;;;;;;;;18.50;98.80;;;;;;4147043;28;20005;-67
2022/09/13 10:31:52;;;;;;;5.82;1.10;;;18.50;98.60;;;;;;4147097;28;19909;-69
2022/09/13 10:34:11;;;;;;;2.85;0.70;;;18.70;98.70;;;;;;4147018;28;20029;-66
2022/09/13 10:36:17;;;;;;;1.70;0.40;;;18.60;98.60;;;;;;4146655;28;20025;-66
2022/09/13 10:38:39;;;;;;;1.65;0.50;;;18.60;98.40;;;;;;4146949;28;20092;-66
2022/09/13 10:40:47;;;;;;;5.13;0.88;;;18.50;98.10;;;;;;4146496;28;20029;-68
2022/09/13 10:42:56;;;;;;;1.75;0.77;;;18.40;98.40;;;;;;4146503;28;20458;-68
2022/09/13 10:45:05;;;;;;;4.13;0.65;;;18.50;98.60;;;;;;4146687;28;20151;-66
2022/09/13 10:47:12;;;;;;;0.82;0.50;;;18.50;98.30;;;;;;4146673;28;20168;-66
2022/09/13 10:49:41;;;;;;;5.10;0.70;;;18.60;98.40;;;;;;4146875;28;20409;-67
2022/09/13 10:51:42;;;;;;;1.25;0.55;;;18.70;98.70;;;;;;4144689;28;20286;-67
2022/09/13 10:53:45;;;;;;;2.15;0.60;;;18.80;98.50;;;;;;4146817;28;20045;-68
2022/09/13 10:55:53;;;;;;;1.65;0.50;;;18.80;98.50;;;;;;4146306;28;20034;-66
2022/09/13 10:58:14;;;;;;;1.63;0.80;;;18.80;98.20;;;;;;4146705;28;20448;-66
2022/09/13 11:00:29;;;;;;;1.60;0.60;;;18.70;98.30;;;;;;4145912;28;20030;-67
2022/09/13 11:03:03;;;;;;;3.15;0.88;;;18.70;98.40;;;;;;4147087;28;20091;-66
2022/09/13 11:05:20;;;;;;;1.05;0.60;;;18.70;98.50;;;;;;4142486;28;20076;-66